sensor_id;sensor_type;location;lat;lon;timestamp;pressure;altitude;pressure_sealevel;temperature;humidity
44751;BME280;30477;48.224;11.470;2023-04-07T00:00:19;96050.81;;;6.07;44.00
44751;BME280;30477;48.224;11.470;2023-04-07T00:02:45;96049.16;;;6.06;44.07
44751;BME280;30477;48.224;11.470;2023-04-07T00:05:11;96048.81;;;5.99;44.00
44751;BME280;30477;48.224;11.470;2023-04-07T00:07:36;96053.72;;;6.02;44.31
44751;BME280;30477;48.224;11.470;2023-04-07T00:10:02;96053.72;;;6.02;44.16
44751;BME280;30477;48.224;11.470;2023-04-07T00:12:27;96054.31;;;6.06;44.39
44751;BME280;30477;48.224;11.470;2023-04-07T00:14:52;96054.88;;;5.98;44.57
44751;BME280;30477;48.224;11.470;2023-04-07T00:17:18;96042.44;;;5.92;44.76
44751;BME280;30477;48.224;11.470;2023-04-07T00:19:43;96042.31;;;5.82;45.13
44751;BME280;30477;48.224;11.470;2023-04-07T00:22:08;96040.28;;;5.75;45.49
44751;BME280;30477;48.224;11.470;2023-04-07T00:24:34;96048.38;;;5.57;45.75
44751;BME280;30477;48.224;11.470;2023-04-07T00:27:00;96049.19;;;5.58;46.26
44751;BME280;30477;48.224;11.470;2023-04-07T00:29:25;96044.22;;;5.67;46.34
44751;BME280;30477;48.224;11.470;2023-04-07T00:31:51;96039.81;;;5.69;46.27
44751;BME280;30477;48.224;11.470;2023-04-07T00:34:16;96036.28;;;5.70;46.56
44751;BME280;30477;48.224;11.470;2023-04-07T00:36:41;96043.56;;;5.77;46.53
44751;BME280;30477;48.224;11.470;2023-04-07T00:39:07;96032.22;;;5.79;46.39
44751;BME280;30477;48.224;11.470;2023-04-07T00:41:35;96041.66;;;5.67;46.82
44751;BME280;30477;48.224;11.470;2023-04-07T00:44:01;96042.44;;;5.57;47.05
44751;BME280;30477;48.224;11.470;2023-04-07T00:46:27;96039.72;;;5.58;47.05
44751;BME280;30477;48.224;11.470;2023-04-07T00:48:52;96037.13;;;5.47;47.44
44751;BME280;30477;48.224;11.470;2023-04-07T00:51:20;96039.47;;;5.50;47.88
44751;BME280;30477;48.224;11.470;2023-04-07T00:53:47;96032.75;;;5.60;47.82
44751;BME280;30477;48.224;11.470;2023-04-07T00:56:13;96038.31;;;5.54;47.84
44751;BME280;30477;48.224;11.470;2023-04-07T00:58:38;96030.47;;;5.44;48.01
44751;BME280;30477;48.224;11.470;2023-04-07T01:01:08;96035.53;;;5.33;48.40
44751;BME280;30477;48.224;11.470;2023-04-07T01:03:44;96034.00;;;5.31;48.97
44751;BME280;30477;48.224;11.470;2023-04-07T01:06:13;96031.59;;;5.40;49.14
44751;BME280;30477;48.224;11.470;2023-04-07T01:11:27;96026.91;;;5.34;49.64
44751;BME280;30477;48.224;11.470;2023-04-07T01:13:56;96020.53;;;5.40;49.41
44751;BME280;30477;48.224;11.470;2023-04-07T01:16:30;96018.44;;;5.45;49.72
44751;BME280;30477;48.224;11.470;2023-04-07T01:21:45;96016.81;;;5.44;49.24
44751;BME280;30477;48.224;11.470;2023-04-07T01:27:12;96022.09;;;5.54;49.14
44751;BME280;30477;48.224;11.470;2023-04-07T01:29:43;96014.97;;;5.46;49.13
44751;BME280;30477;48.224;11.470;2023-04-07T01:32:13;96015.41;;;5.27;49.43
44751;BME280;30477;48.224;11.470;2023-04-07T01:34:39;96022.25;;;5.15;50.54
44751;BME280;30477;48.224;11.470;2023-04-07T01:37:06;96019.38;;;5.20;50.86
44751;BME280;30477;48.224;11.470;2023-04-07T01:39:32;96013.25;;;5.34;51.18
44751;BME280;30477;48.224;11.470;2023-04-07T01:41:59;96014.06;;;5.34;51.05
44751;BME280;30477;48.224;11.470;2023-04-07T01:44:27;96015.41;;;5.40;51.21
44751;BME280;30477;48.224;11.470;2023-04-07T01:46:54;96017.13;;;5.39;51.37
44751;BME280;30477;48.224;11.470;2023-04-07T01:49:20;96012.25;;;5.47;51.44
44751;BME280;30477;48.224;11.470;2023-04-07T01:51:47;96017.19;;;5.51;51.65
44751;BME280;30477;48.224;11.470;2023-04-07T01:54:15;96015.44;;;5.51;51.70
44751;BME280;30477;48.224;11.470;2023-04-07T01:56:42;96018.44;;;5.45;52.14
44751;BME280;30477;48.224;11.470;2023-04-07T01:59:07;96003.78;;;5.58;52.13
44751;BME280;30477;48.224;11.470;2023-04-07T02:01:33;96007.69;;;5.75;51.95
44751;BME280;30477;48.224;11.470;2023-04-07T02:04:30;96010.25;;;5.75;51.98
44751;BME280;30477;48.224;11.470;2023-04-07T02:07:00;95994.84;;;5.75;52.06
44751;BME280;30477;48.224;11.470;2023-04-07T02:09:30;96006.41;;;5.69;52.26
44751;BME280;30477;48.224;11.470;2023-04-07T02:11:59;96002.69;;;5.74;52.27
44751;BME280;30477;48.224;11.470;2023-04-07T02:14:26;96001.03;;;5.73;52.43
44751;BME280;30477;48.224;11.470;2023-04-07T02:16:52;96001.41;;;5.79;52.42
44751;BME280;30477;48.224;11.470;2023-04-07T02:19:18;96004.38;;;5.86;52.39
44751;BME280;30477;48.224;11.470;2023-04-07T02:21:44;96004.59;;;5.83;52.31
44751;BME280;30477;48.224;11.470;2023-04-07T02:24:11;96005.63;;;5.80;52.50
44751;BME280;30477;48.224;11.470;2023-04-07T02:26:37;95999.41;;;5.72;52.70
44751;BME280;30477;48.224;11.470;2023-04-07T02:29:03;96004.56;;;5.72;52.71
44751;BME280;30477;48.224;11.470;2023-04-07T02:31:28;96002.97;;;5.82;52.79
44751;BME280;30477;48.224;11.470;2023-04-07T02:33:54;95998.13;;;5.77;52.94
44751;BME280;30477;48.224;11.470;2023-04-07T02:36:20;96002.00;;;5.83;53.05
44751;BME280;30477;48.224;11.470;2023-04-07T02:38:45;96003.44;;;5.87;52.77
44751;BME280;30477;48.224;11.470;2023-04-07T02:41:10;95995.28;;;5.93;52.69
44751;BME280;30477;48.224;11.470;2023-04-07T02:43:35;95998.66;;;5.94;52.66
44751;BME280;30477;48.224;11.470;2023-04-07T02:46:01;95992.44;;;5.85;52.97
44751;BME280;30477;48.224;11.470;2023-04-07T02:48:26;95996.06;;;5.82;52.98
44751;BME280;30477;48.224;11.470;2023-04-07T02:50:51;95992.44;;;5.85;52.81
44751;BME280;30477;48.224;11.470;2023-04-07T02:53:17;95995.72;;;5.87;53.00
44751;BME280;30477;48.224;11.470;2023-04-07T02:55:42;95992.25;;;5.88;52.86
44751;BME280;30477;48.224;11.470;2023-04-07T02:58:07;95994.31;;;5.83;53.15
44751;BME280;30477;48.224;11.470;2023-04-07T03:00:33;95999.25;;;5.86;53.53
44751;BME280;30477;48.224;11.470;2023-04-07T03:02:58;95997.44;;;5.75;54.13
44751;BME280;30477;48.224;11.470;2023-04-07T03:05:24;96000.50;;;5.80;54.62
44751;BME280;30477;48.224;11.470;2023-04-07T03:07:49;95992.91;;;5.79;54.70
44751;BME280;30477;48.224;11.470;2023-04-07T03:10:15;95993.59;;;5.81;55.38
44751;BME280;30477;48.224;11.470;2023-04-07T03:12:41;95990.47;;;5.88;55.79
44751;BME280;30477;48.224;11.470;2023-04-07T03:15:07;95992.34;;;5.86;56.12
44751;BME280;30477;48.224;11.470;2023-04-07T03:17:33;95989.06;;;5.84;56.51
44751;BME280;30477;48.224;11.470;2023-04-07T03:19:58;95988.03;;;5.87;56.81
44751;BME280;30477;48.224;11.470;2023-04-07T03:22:23;95989.28;;;5.81;57.14
44751;BME280;30477;48.224;11.470;2023-04-07T03:24:49;95980.31;;;5.87;57.38
44751;BME280;30477;48.224;11.470;2023-04-07T03:27:14;95981.81;;;5.78;57.58
44751;BME280;30477;48.224;11.470;2023-04-07T03:29:41;95985.69;;;5.84;57.89
44751;BME280;30477;48.224;11.470;2023-04-07T03:32:07;95975.78;;;5.90;58.12
44751;BME280;30477;48.224;11.470;2023-04-07T03:34:32;95984.53;;;5.88;58.18
44751;BME280;30477;48.224;11.470;2023-04-07T03:36:57;95980.75;;;5.81;58.69
44751;BME280;30477;48.224;11.470;2023-04-07T03:39:22;95972.59;;;5.87;58.83
44751;BME280;30477;48.224;11.470;2023-04-07T03:41:48;95975.72;;;5.79;59.12
44751;BME280;30477;48.224;11.470;2023-04-07T03:44:13;95971.44;;;5.80;59.42
44751;BME280;30477;48.224;11.470;2023-04-07T03:46:38;95970.03;;;5.76;59.91
44751;BME280;30477;48.224;11.470;2023-04-07T03:49:04;95968.88;;;5.80;59.79
44751;BME280;30477;48.224;11.470;2023-04-07T03:51:30;95967.66;;;5.73;60.34
44751;BME280;30477;48.224;11.470;2023-04-07T03:53:57;95967.66;;;5.73;60.51
44751;BME280;30477;48.224;11.470;2023-04-07T03:56:22;95975.97;;;5.76;60.80
44751;BME280;30477;48.224;11.470;2023-04-07T03:58:48;95971.72;;;5.64;60.83
44751;BME280;30477;48.224;11.470;2023-04-07T04:01:14;95969.75;;;5.67;61.57
44751;BME280;30477;48.224;11.470;2023-04-07T04:03:39;95964.88;;;5.76;61.44
44751;BME280;30477;48.224;11.470;2023-04-07T04:06:04;95963.22;;;5.75;61.49
44751;BME280;30477;48.224;11.470;2023-04-07T04:08:30;95959.41;;;5.80;61.49
44751;BME280;30477;48.224;11.470;2023-04-07T04:10:55;95961.25;;;5.67;61.82
44751;BME280;30477;48.224;11.470;2023-04-07T04:13:21;95962.94;;;5.55;62.28
44751;BME280;30477;48.224;11.470;2023-04-07T04:15:46;95961.28;;;5.54;62.93
44751;BME280;30477;48.224;11.470;2023-04-07T04:18:12;95959.56;;;5.55;63.29
44751;BME280;30477;48.224;11.470;2023-04-07T04:20:37;95960.84;;;5.60;63.35
44751;BME280;30477;48.224;11.470;2023-04-07T04:23:02;95957.13;;;5.64;63.50
44751;BME280;30477;48.224;11.470;2023-04-07T04:25:28;95955.97;;;5.68;63.43
44751;BME280;30477;48.224;11.470;2023-04-07T04:27:53;95963.31;;;5.62;63.49
44751;BME280;30477;48.224;11.470;2023-04-07T04:30:18;95954.53;;;5.53;64.00
44751;BME280;30477;48.224;11.470;2023-04-07T04:32:44;95962.34;;;5.52;64.14
44751;BME280;30477;48.224;11.470;2023-04-07T04:35:10;95959.94;;;5.61;64.22
44751;BME280;30477;48.224;11.470;2023-04-07T04:37:35;95970.22;;;5.73;64.33
44751;BME280;30477;48.224;11.470;2023-04-07T04:40:01;95968.16;;;5.78;63.80
44751;BME280;30477;48.224;11.470;2023-04-07T04:42:26;95955.78;;;5.83;63.58
44751;BME280;30477;48.224;11.470;2023-04-07T04:44:52;95964.44;;;5.82;63.48
44751;BME280;30477;48.224;11.470;2023-04-07T04:47:17;95956.13;;;5.78;63.32
44751;BME280;30477;48.224;11.470;2023-04-07T04:49:43;95957.44;;;5.84;63.43
44751;BME280;30477;48.224;11.470;2023-04-07T04:52:08;95957.44;;;5.84;63.11
44751;BME280;30477;48.224;11.470;2023-04-07T04:54:34;95952.75;;;5.78;62.99
44751;BME280;30477;48.224;11.470;2023-04-07T04:56:59;95957.03;;;5.77;63.01
44751;BME280;30477;48.224;11.470;2023-04-07T04:59:25;95957.72;;;5.68;63.28
44751;BME280;30477;48.224;11.470;2023-04-07T05:01:51;95959.16;;;5.72;63.30
44751;BME280;30477;48.224;11.470;2023-04-07T05:04:16;95953.19;;;5.72;63.20
44751;BME280;30477;48.224;11.470;2023-04-07T05:06:41;95963.47;;;5.72;63.35
44751;BME280;30477;48.224;11.470;2023-04-07T05:09:07;95959.50;;;5.67;63.23
44751;BME280;30477;48.224;11.470;2023-04-07T05:11:32;95951.78;;;5.67;63.23
44751;BME280;30477;48.224;11.470;2023-04-07T05:13:57;95961.47;;;5.64;63.25
44751;BME280;30477;48.224;11.470;2023-04-07T05:16:23;95963.22;;;5.63;63.45
44751;BME280;30477;48.224;11.470;2023-04-07T05:18:48;95955.28;;;5.66;63.67
44751;BME280;30477;48.224;11.470;2023-04-07T05:21:13;95954.34;;;5.67;63.44
44751;BME280;30477;48.224;11.470;2023-04-07T05:23:39;95954.22;;;5.69;63.51
44751;BME280;30477;48.224;11.470;2023-04-07T05:26:04;95947.69;;;5.65;63.45
44751;BME280;30477;48.224;11.470;2023-04-07T05:28:30;95954.47;;;5.66;63.58
44751;BME280;30477;48.224;11.470;2023-04-07T05:30:55;95951.88;;;5.66;63.50
44751;BME280;30477;48.224;11.470;2023-04-07T05:33:20;95953.78;;;5.75;63.57
44751;BME280;30477;48.224;11.470;2023-04-07T05:35:46;95948.63;;;5.75;63.37
44751;BME280;30477;48.224;11.470;2023-04-07T05:38:12;95950.63;;;5.72;63.62
44751;BME280;30477;48.224;11.470;2023-04-07T05:40:39;95950.41;;;5.75;63.55
44751;BME280;30477;48.224;11.470;2023-04-07T05:43:04;95960.66;;;5.75;63.38
44751;BME280;30477;48.224;11.470;2023-04-07T05:45:29;95953.19;;;5.72;63.50
44751;BME280;30477;48.224;11.470;2023-04-07T05:47:55;95955.88;;;5.70;63.90
44751;BME280;30477;48.224;11.470;2023-04-07T05:50:20;95957.88;;;5.78;63.79
44751;BME280;30477;48.224;11.470;2023-04-07T05:52:46;95947.72;;;5.76;63.69
44751;BME280;30477;48.224;11.470;2023-04-07T05:55:11;95949.03;;;5.82;63.73
44751;BME280;30477;48.224;11.470;2023-04-07T05:57:36;95944.34;;;5.87;63.64
44751;BME280;30477;48.224;11.470;2023-04-07T06:00:02;95944.63;;;5.95;63.56
44751;BME280;30477;48.224;11.470;2023-04-07T06:02:28;95940.91;;;5.99;63.53
44751;BME280;30477;48.224;11.470;2023-04-07T06:04:54;95937.81;;;5.94;63.26
44751;BME280;30477;48.224;11.470;2023-04-07T06:07:19;95940.09;;;5.99;63.00
44751;BME280;30477;48.224;11.470;2023-04-07T06:09:44;95933.09;;;6.01;63.09
44751;BME280;30477;48.224;11.470;2023-04-07T06:12:10;95926.91;;;6.03;63.07
44751;BME280;30477;48.224;11.470;2023-04-07T06:14:36;95931.78;;;5.95;62.64
44751;BME280;30477;48.224;11.470;2023-04-07T06:17:02;95929.56;;;6.02;63.33
44751;BME280;30477;48.224;11.470;2023-04-07T06:19:27;95929.22;;;5.95;63.04
44751;BME280;30477;48.224;11.470;2023-04-07T06:21:52;95925.50;;;5.99;63.02
44751;BME280;30477;48.224;11.470;2023-04-07T06:24:18;95926.91;;;6.03;63.14
44751;BME280;30477;48.224;11.470;2023-04-07T06:26:47;95918.03;;;6.07;63.13
44751;BME280;30477;48.224;11.470;2023-04-07T06:29:12;95903.88;;;6.02;62.92
44751;BME280;30477;48.224;11.470;2023-04-07T06:31:37;95910.66;;;6.14;63.22
44751;BME280;30477;48.224;11.470;2023-04-07T06:34:03;95909.50;;;6.18;63.15
44751;BME280;30477;48.224;11.470;2023-04-07T06:36:28;95911.25;;;6.29;63.38
44751;BME280;30477;48.224;11.470;2023-04-07T06:38:54;95912.91;;;6.30;63.26
44751;BME280;30477;48.224;11.470;2023-04-07T06:41:19;95912.19;;;6.39;63.28
44751;BME280;30477;48.224;11.470;2023-04-07T06:43:47;95905.63;;;6.46;63.03
44751;BME280;30477;48.224;11.470;2023-04-07T06:46:13;95917.31;;;6.50;63.14
44751;BME280;30477;48.224;11.470;2023-04-07T06:48:38;95912.41;;;6.59;62.80
44751;BME280;30477;48.224;11.470;2023-04-07T06:51:04;95909.47;;;6.63;62.63
44751;BME280;30477;48.224;11.470;2023-04-07T06:53:29;95910.16;;;6.65;62.23
44751;BME280;30477;48.224;11.470;2023-04-07T06:56:08;95912.50;;;6.68;62.08
44751;BME280;30477;48.224;11.470;2023-04-07T06:58:34;95904.91;;;6.67;61.95
44751;BME280;30477;48.224;11.470;2023-04-07T07:01:00;95902.81;;;6.72;61.71
44751;BME280;30477;48.224;11.470;2023-04-07T07:03:26;95908.59;;;6.85;61.70
44751;BME280;30477;48.224;11.470;2023-04-07T07:05:54;95896.66;;;6.96;61.32
44751;BME280;30477;48.224;11.470;2023-04-07T07:08:21;95910.16;;;7.09;61.39
44751;BME280;30477;48.224;11.470;2023-04-07T07:10:46;95906.69;;;7.10;61.39
44751;BME280;30477;48.224;11.470;2023-04-07T07:13:11;95905.00;;;7.20;60.99
44751;BME280;30477;48.224;11.470;2023-04-07T07:15:37;95905.50;;;7.14;60.88
44751;BME280;30477;48.224;11.470;2023-04-07T07:18:02;95915.25;;;7.31;61.16
44751;BME280;30477;48.224;11.470;2023-04-07T07:20:27;95912.88;;;7.40;60.43
44751;BME280;30477;48.224;11.470;2023-04-07T07:22:53;95917.22;;;7.39;60.20
44751;BME280;30477;48.224;11.470;2023-04-07T07:25:18;95909.53;;;7.49;60.07
44751;BME280;30477;48.224;11.470;2023-04-07T07:27:44;95907.03;;;7.59;59.65
44751;BME280;30477;48.224;11.470;2023-04-07T07:30:10;95907.03;;;7.59;59.72
44751;BME280;30477;48.224;11.470;2023-04-07T07:32:35;95906.28;;;7.68;59.17
44751;BME280;30477;48.224;11.470;2023-04-07T07:35:00;95903.50;;;7.60;59.10
44751;BME280;30477;48.224;11.470;2023-04-07T07:37:26;95912.19;;;7.59;59.36
44751;BME280;30477;48.224;11.470;2023-04-07T07:39:52;95903.59;;;7.69;59.56
44751;BME280;30477;48.224;11.470;2023-04-07T07:42:17;95909.34;;;7.83;59.11
44751;BME280;30477;48.224;11.470;2023-04-07T07:44:43;95908.41;;;7.84;59.16
44751;BME280;30477;48.224;11.470;2023-04-07T07:47:08;95916.16;;;7.84;58.78
44751;BME280;30477;48.224;11.470;2023-04-07T07:49:33;95918.16;;;7.80;58.61
44751;BME280;30477;48.224;11.470;2023-04-07T07:51:59;95919.66;;;7.83;58.36
44751;BME280;30477;48.224;11.470;2023-04-07T07:54:25;95918.84;;;7.82;58.28
44751;BME280;30477;48.224;11.470;2023-04-07T07:56:50;95917.47;;;7.78;58.13
44751;BME280;30477;48.224;11.470;2023-04-07T07:59:16;95923.06;;;7.83;58.13
44751;BME280;30477;48.224;11.470;2023-04-07T08:01:42;95925.38;;;7.86;58.21
44751;BME280;30477;48.224;11.470;2023-04-07T08:04:07;95917.25;;;7.91;57.86
44751;BME280;30477;48.224;11.470;2023-04-07T08:06:33;95916.47;;;7.90;57.77
44751;BME280;30477;48.224;11.470;2023-04-07T08:08:58;95917.78;;;7.85;57.46
44751;BME280;30477;48.224;11.470;2023-04-07T08:11:24;95914.50;;;7.83;57.89
44751;BME280;30477;48.224;11.470;2023-04-07T08:13:49;95913.75;;;7.92;57.83
44751;BME280;30477;48.224;11.470;2023-04-07T08:16:14;95908.53;;;8.03;57.46
44751;BME280;30477;48.224;11.470;2023-04-07T08:18:40;95909.28;;;7.94;57.45
44751;BME280;30477;48.224;11.470;2023-04-07T08:21:05;95913.56;;;8.05;57.71
44751;BME280;30477;48.224;11.470;2023-04-07T08:23:31;95909.56;;;8.22;57.36
44751;BME280;30477;48.224;11.470;2023-04-07T08:25:56;95898.63;;;8.39;57.04
44751;BME280;30477;48.224;11.470;2023-04-07T08:28:23;95905.31;;;8.42;56.63
44751;BME280;30477;48.224;11.470;2023-04-07T08:30:48;95908.34;;;8.26;56.36
44751;BME280;30477;48.224;11.470;2023-04-07T08:33:14;95909.84;;;8.28;56.24
44751;BME280;30477;48.224;11.470;2023-04-07T08:35:39;95912.03;;;8.33;56.26
44751;BME280;30477;48.224;11.470;2023-04-07T08:38:05;95900.75;;;8.55;56.12
44751;BME280;30477;48.224;11.470;2023-04-07T08:40:32;95897.13;;;8.67;55.54
44751;BME280;30477;48.224;11.470;2023-04-07T08:42:58;95901.84;;;8.62;55.18
44751;BME280;30477;48.224;11.470;2023-04-07T08:45:25;95894.50;;;8.58;54.96
44751;BME280;30477;48.224;11.470;2023-04-07T08:47:54;95899.47;;;8.80;55.41
44751;BME280;30477;48.224;11.470;2023-04-07T08:50:21;95893.19;;;8.73;54.93
44751;BME280;30477;48.224;11.470;2023-04-07T08:52:53;95897.84;;;8.89;54.87
44751;BME280;30477;48.224;11.470;2023-04-07T08:55:19;95894.84;;;8.93;55.07
44751;BME280;30477;48.224;11.470;2023-04-07T08:57:45;95896.63;;;9.03;54.17
44751;BME280;30477;48.224;11.470;2023-04-07T09:00:11;95898.63;;;8.80;54.18
44751;BME280;30477;48.224;11.470;2023-04-07T09:02:38;95895.63;;;8.74;54.49
44751;BME280;30477;48.224;11.470;2023-04-07T09:05:08;95893.25;;;8.92;54.86
44751;BME280;30477;48.224;11.470;2023-04-07T09:07:36;95902.59;;;8.93;54.18
44751;BME280;30477;48.224;11.470;2023-04-07T09:10:02;95894.88;;;9.13;54.17
44751;BME280;30477;48.224;11.470;2023-04-07T09:12:28;95891.63;;;9.50;53.84
44751;BME280;30477;48.224;11.470;2023-04-07T09:14:54;95889.94;;;9.78;52.80
44751;BME280;30477;48.224;11.470;2023-04-07T09:17:19;95898.28;;;10.09;53.44
44751;BME280;30477;48.224;11.470;2023-04-07T09:19:46;95889.28;;;10.13;52.45
44751;BME280;30477;48.224;11.470;2023-04-07T09:22:11;95895.91;;;9.88;52.32
44751;BME280;30477;48.224;11.470;2023-04-07T09:24:39;95889.53;;;9.63;51.58
44751;BME280;30477;48.224;11.470;2023-04-07T09:27:15;95883.16;;;9.77;52.20
44751;BME280;30477;48.224;11.470;2023-04-07T09:29:42;95879.50;;;10.07;52.51
44751;BME280;30477;48.224;11.470;2023-04-07T09:32:08;95876.06;;;10.54;52.20
44751;BME280;30477;48.224;11.470;2023-04-07T09:34:36;95876.03;;;10.64;51.17
44751;BME280;30477;48.224;11.470;2023-04-07T09:37:02;95880.84;;;10.76;50.70
44751;BME280;30477;48.224;11.470;2023-04-07T09:39:29;95884.63;;;10.27;50.41
44751;BME280;30477;48.224;11.470;2023-04-07T09:41:56;95876.19;;;10.25;50.83
44751;BME280;30477;48.224;11.470;2023-04-07T09:44:22;95878.06;;;10.42;50.14
44751;BME280;30477;48.224;11.470;2023-04-07T09:46:53;95873.78;;;10.13;49.86
44751;BME280;30477;48.224;11.470;2023-04-07T09:49:20;95867.25;;;10.09;49.77
44751;BME280;30477;48.224;11.470;2023-04-07T09:51:59;95864.97;;;10.44;49.46
44751;BME280;30477;48.224;11.470;2023-04-07T09:54:41;95862.38;;;10.89;49.73
44751;BME280;30477;48.224;11.470;2023-04-07T09:57:08;95866.38;;;11.02;48.71
44751;BME280;30477;48.224;11.470;2023-04-07T09:59:35;95875.09;;;10.65;47.67
44751;BME280;30477;48.224;11.470;2023-04-07T10:02:01;95865.66;;;10.08;48.33
44751;BME280;30477;48.224;11.470;2023-04-07T10:04:27;95876.91;;;10.17;49.75
44751;BME280;30477;48.224;11.470;2023-04-07T10:06:54;95864.00;;;10.45;49.28
44751;BME280;30477;48.224;11.470;2023-04-07T10:09:24;95871.09;;;10.70;48.61
44751;BME280;30477;48.224;11.470;2023-04-07T10:11:54;95866.22;;;10.85;48.52
44751;BME280;30477;48.224;11.470;2023-04-07T10:14:21;95856.38;;;10.89;48.85
44751;BME280;30477;48.224;11.470;2023-04-07T10:16:50;95861.88;;;11.04;48.88
44751;BME280;30477;48.224;11.470;2023-04-07T10:19:16;95860.91;;;10.87;48.57
44751;BME280;30477;48.224;11.470;2023-04-07T10:21:42;95863.00;;;10.55;47.83
44751;BME280;30477;48.224;11.470;2023-04-07T10:24:14;95862.47;;;10.52;48.45
44751;BME280;30477;48.224;11.470;2023-04-07T10:26:47;95867.78;;;10.78;48.66
44751;BME280;30477;48.224;11.470;2023-04-07T10:29:16;95867.31;;;10.65;47.64
44751;BME280;30477;48.224;11.470;2023-04-07T10:31:44;95867.56;;;10.71;48.35
44751;BME280;30477;48.224;11.470;2023-04-07T10:34:10;95855.66;;;10.96;48.29
44751;BME280;30477;48.224;11.470;2023-04-07T10:37:10;95865.81;;;11.26;48.09
44751;BME280;30477;48.224;11.470;2023-04-07T10:39:37;95851.09;;;11.52;47.84
44751;BME280;30477;48.224;11.470;2023-04-07T10:42:03;95862.81;;;11.83;47.11
44751;BME280;30477;48.224;11.470;2023-04-07T10:47:03;95860.00;;;11.94;47.45
44751;BME280;30477;48.224;11.470;2023-04-07T10:49:30;95852.25;;;11.76;46.03
44751;BME280;30477;48.224;11.470;2023-04-07T10:54:37;95852.00;;;11.25;46.04
44751;BME280;30477;48.224;11.470;2023-04-07T10:59:28;95856.00;;;11.37;47.52
44751;BME280;30477;48.224;11.470;2023-04-07T11:04:44;95850.81;;;11.82;47.03
44751;BME280;30477;48.224;11.470;2023-04-07T11:07:11;95849.00;;;12.00;46.12
44751;BME280;30477;48.224;11.470;2023-04-07T11:09:37;95852.06;;;11.77;45.57
44751;BME280;30477;48.224;11.470;2023-04-07T11:12:02;95845.75;;;11.98;45.90
44751;BME280;30477;48.224;11.470;2023-04-07T11:14:30;95844.56;;;12.18;45.37
44751;BME280;30477;48.224;11.470;2023-04-07T11:16:56;95835.22;;;12.34;44.79
44751;BME280;30477;48.224;11.470;2023-04-07T11:19:22;95836.81;;;12.27;44.96
44751;BME280;30477;48.224;11.470;2023-04-07T11:21:47;95837.66;;;12.35;44.32
44751;BME280;30477;48.224;11.470;2023-04-07T11:24:32;95833.97;;;12.46;43.14
44751;BME280;30477;48.224;11.470;2023-04-07T11:26:58;95831.19;;;12.39;43.95
44751;BME280;30477;48.224;11.470;2023-04-07T11:29:30;95823.63;;;12.63;43.62
44751;BME280;30477;48.224;11.470;2023-04-07T11:31:58;95823.16;;;12.75;43.06
44751;BME280;30477;48.224;11.470;2023-04-07T11:34:31;95827.56;;;12.75;43.39
44751;BME280;30477;48.224;11.470;2023-04-07T11:36:57;95831.72;;;12.59;44.38
44751;BME280;30477;48.224;11.470;2023-04-07T11:39:27;95828.03;;;12.62;44.81
44751;BME280;30477;48.224;11.470;2023-04-07T11:41:55;95824.25;;;12.56;44.48
44751;BME280;30477;48.224;11.470;2023-04-07T11:44:21;95827.16;;;12.45;43.97
44751;BME280;30477;48.224;11.470;2023-04-07T11:49:18;95824.28;;;12.65;44.66
44751;BME280;30477;48.224;11.470;2023-04-07T11:51:44;95829.63;;;12.63;44.79
44751;BME280;30477;48.224;11.470;2023-04-07T11:54:11;95822.00;;;12.70;44.71
44751;BME280;30477;48.224;11.470;2023-04-07T11:56:44;95815.19;;;12.61;44.70
44751;BME280;30477;48.224;11.470;2023-04-07T11:59:20;95829.72;;;12.37;45.08
44751;BME280;30477;48.224;11.470;2023-04-07T12:01:47;95826.66;;;11.99;44.91
44751;BME280;30477;48.224;11.470;2023-04-07T12:04:12;95824.59;;;11.85;45.41
44751;BME280;30477;48.224;11.470;2023-04-07T12:06:42;95824.59;;;11.85;45.54
44751;BME280;30477;48.224;11.470;2023-04-07T12:09:23;95824.88;;;11.82;45.40
44751;BME280;30477;48.224;11.470;2023-04-07T12:11:50;95823.59;;;11.86;45.88
44751;BME280;30477;48.224;11.470;2023-04-07T12:14:15;95818.22;;;12.05;45.89
44751;BME280;30477;48.224;11.470;2023-04-07T12:16:41;95817.16;;;12.16;45.33
44751;BME280;30477;48.224;11.470;2023-04-07T12:19:06;95820.84;;;12.13;45.03
44751;BME280;30477;48.224;11.470;2023-04-07T12:21:32;95828.50;;;12.15;44.90
44751;BME280;30477;48.224;11.470;2023-04-07T12:23:57;95820.97;;;12.38;44.87
44751;BME280;30477;48.224;11.470;2023-04-07T12:26:23;95819.69;;;12.50;45.18
44751;BME280;30477;48.224;11.470;2023-04-07T12:28:49;95825.84;;;12.41;45.57
44751;BME280;30477;48.224;11.470;2023-04-07T12:31:14;95825.78;;;12.25;46.02
44751;BME280;30477;48.224;11.470;2023-04-07T12:33:40;95828.59;;;12.39;45.33
44751;BME280;30477;48.224;11.470;2023-04-07T12:36:05;95825.41;;;12.19;45.33
44751;BME280;30477;48.224;11.470;2023-04-07T12:38:31;95825.81;;;12.33;45.15
44751;BME280;30477;48.224;11.470;2023-04-07T12:40:56;95821.91;;;12.29;44.63
44751;BME280;30477;48.224;11.470;2023-04-07T12:43:28;95825.78;;;12.25;44.46
44751;BME280;30477;48.224;11.470;2023-04-07T12:45:53;95829.66;;;12.21;45.27
44751;BME280;30477;48.224;11.470;2023-04-07T12:48:18;95821.78;;;12.04;45.59
44751;BME280;30477;48.224;11.470;2023-04-07T12:50:43;95821.56;;;11.89;45.77
44751;BME280;30477;48.224;11.470;2023-04-07T12:53:09;95826.94;;;11.96;45.61
44751;BME280;30477;48.224;11.470;2023-04-07T12:55:35;95821.97;;;12.11;45.81
44751;BME280;30477;48.224;11.470;2023-04-07T12:58:00;95821.19;;;12.10;45.70
44751;BME280;30477;48.224;11.470;2023-04-07T13:00:26;95823.78;;;12.10;45.74
44751;BME280;30477;48.224;11.470;2023-04-07T13:02:51;95820.22;;;12.19;46.26
44751;BME280;30477;48.224;11.470;2023-04-07T13:05:17;95827.28;;;12.35;46.71
44751;BME280;30477;48.224;11.470;2023-04-07T13:07:43;95823.69;;;12.36;47.23
44751;BME280;30477;48.224;11.470;2023-04-07T13:10:09;95825.16;;;12.31;47.56
44751;BME280;30477;48.224;11.470;2023-04-07T13:12:34;95822.59;;;12.39;47.20
44751;BME280;30477;48.224;11.470;2023-04-07T13:15:00;95827.44;;;12.34;46.88